Terminal Aerodrome Forecast
Issued by NWS Birmingham, AL

Home | Current Version | Previous Version | Text Only | Print | Product List | Glossary On
Versions: 1 2 3 4 5 6 7 8 9 10 11 12 13 14 15 16 17
499
FTUS44 KBMX 301151
TAFBHM
TAF
KBHM 301151Z 3012/0112 VRB03KT P6SM BKN200
     FM301500 18008KT P6SM BKN080 BKN200
     FM301800 19011KT P6SM VCTS BKN040CB OVC200
     FM302200 19011KT 5SM TSRA BKN040CB OVC200
     FM010100 18008KT P6SM SHRA VCTS BKN035CB=

USA.gov is the U.S. government's official web portal to all federal, state and local government web resources and services.